Hauptseite
METAR-TAF:

METAR-TAF

Flughäfen :

Flughafen Lüttich

Lüttich, Belgien

Breite: 50-39N, Länge: 005-27E, Höhe: 186 m

Beobachtung

Neuester Wetterbericht von vor 36 Minuten, um 02:50 UTC
Wind 9 kt aus Süd/Südwest
Temperatur 13°C
Luftfeuchtigkeit 88%
Luftdruck 1028 hPa
Sichtweite 10 km oder mehr
keine Wolken unter 1500 m und keine Kumulonimbus oder Gewitterwolken

METAR: EBLG 130250Z 20009KT CAVOK 13/11 Q1028 NOSIG

Zeit: 05:26 (03:26 UTC)

Prognose

Neuester Wetterbericht von vor 4 Stunden und 16 Minuten, um 23:10 UTC
Gültige Prognose vom 13 um 00 UTC bis 14 um 06 UTC
Wind 6 kt aus Süd/Südwest
Sichtweite 10 km oder mehr
keine Wolken unter 1500 m und keine Kumulonimbus oder Gewitterwolken
Wahrscheinlichkeit 30% :
Zeitweise
vom 13 um 10 UTC bis 13 um 16 UTC
Wind 15 kt aus Südwest, Böen bis zu 25 kt

TAF: EBLG 122310Z 1300/1406 20006KT CAVOK PROB30 TEMPO 1310/1316 22015G25KT

Wetterbeobachtungen und Prognosen von mehr als 4000 Flughäfen (METAR und TAF Bericht).

Die verfügbaren Stationen werden durch gelbe und rote Markierungen auf der Karte dargestellt.

Führen Sie die Maus auf sie, um den Namen der Station zu sehen.

Darauf klicken, um die Beobachtung von Wetterbeobachtungen und Prognosen zu sehen.

Um die Karte zu ändern : klicken Sie auf den grünen Tasten mit einem schwarzen Kreuz Zum Vergrößern, auf den grünen Button mit einem Gedankenstrich zu verkleinern, oder auf die grünen Pfeile für benachbarte Karten.


METAR-TAF: